createdAt,value
2023-02-12T00:01:11.133Z,72.10
2023-02-12T00:03:39.656Z,72.25
2023-02-12T00:06:08.687Z,71.63
2023-02-12T00:08:37.659Z,71.59
2023-02-12T00:11:10.799Z,71.51
2023-02-12T00:13:39.206Z,71.67
2023-02-12T00:16:08.987Z,71.21
2023-02-12T00:18:37.151Z,70.81
2023-02-12T00:21:05.586Z,70.94
2023-02-12T00:23:33.149Z,70.65
2023-02-12T00:26:00.958Z,70.60
2023-02-12T00:28:28.470Z,70.40
2023-02-12T00:30:56.201Z,69.83
2023-02-12T00:33:23.780Z,69.97
2023-02-12T00:35:57.983Z,70.12
2023-02-12T00:38:25.525Z,70.15
2023-02-12T00:40:53.214Z,69.77
2023-02-12T00:43:20.985Z,69.53
2023-02-12T00:45:48.484Z,69.75
2023-02-12T00:48:17.897Z,69.95
2023-02-12T00:50:48.030Z,70.39
2023-02-12T00:53:15.775Z,69.80
2023-02-12T00:55:43.765Z,70.36
2023-02-12T00:58:11.452Z,70.17
2023-02-12T01:00:38.936Z,69.90
2023-02-12T01:03:06.601Z,69.83
2023-02-12T01:05:34.116Z,69.64
2023-02-12T01:08:02.136Z,69.76
2023-02-12T01:10:31.604Z,69.06
2023-02-12T01:12:59.172Z,69.53
2023-02-12T01:15:26.701Z,69.13
2023-02-12T01:17:54.458Z,69.05
2023-02-12T01:20:24.111Z,68.95
2023-02-12T01:22:52.466Z,69.12
2023-02-12T01:25:21.602Z,68.62
2023-02-12T01:27:49.236Z,68.95
2023-02-12T01:30:16.939Z,68.90
2023-02-12T01:32:44.948Z,68.70
2023-02-12T01:35:12.438Z,68.44
2023-02-12T01:37:41.650Z,68.26
2023-02-12T01:40:10.296Z,68.25
2023-02-12T01:42:37.950Z,67.77
2023-02-12T01:45:14.499Z,67.47
2023-02-12T01:47:44.317Z,67.85
2023-02-12T01:50:15.352Z,67.61
2023-02-12T01:52:48.303Z,67.46
2023-02-12T01:55:16.230Z,67.62
2023-02-12T01:57:48.268Z,67.42
2023-02-12T02:00:26.862Z,67.55
2023-02-12T02:02:58.653Z,67.45
2023-02-12T02:06:01.523Z,66.86
2023-02-12T02:08:29.328Z,67.10
2023-02-12T02:10:56.870Z,67.09
2023-02-12T02:13:43.259Z,66.99
2023-02-12T02:16:34.298Z,66.85
2023-02-12T02:19:43.152Z,66.28
2023-02-12T02:22:24.592Z,66.33
2023-02-12T02:24:52.052Z,66.69
2023-02-12T02:27:31.711Z,66.63
2023-02-12T02:30:20.349Z,65.95
2023-02-12T02:33:25.812Z,65.41
2023-02-12T02:36:13.939Z,65.89
2023-02-12T02:39:06.619Z,66.24
2023-02-12T02:41:44.330Z,66.34
2023-02-12T02:44:18.352Z,65.97
2023-02-12T02:46:54.742Z,65.89
2023-02-12T02:49:27.409Z,66.16
2023-02-12T02:52:10.380Z,65.77
2023-02-12T02:54:46.338Z,65.90
2023-02-12T02:57:22.125Z,65.96
2023-02-12T02:59:58.501Z,65.77
2023-02-12T03:02:33.944Z,65.92
2023-02-12T03:05:08.285Z,65.88
2023-02-12T03:07:44.948Z,65.61
2023-02-12T03:10:18.501Z,65.85
2023-02-12T03:12:58.316Z,65.77
2023-02-12T03:15:51.502Z,65.75
2023-02-12T03:18:27.998Z,65.89
2023-02-12T03:21:02.516Z,66.22
2023-02-12T03:23:40.516Z,66.14
2023-02-12T03:26:23.184Z,66.20
2023-02-12T03:28:51.500Z,66.04
2023-02-12T03:31:24.611Z,66.34
2023-02-12T03:33:58.069Z,66.64
2023-02-12T03:36:28.241Z,66.50
2023-02-12T03:38:58.410Z,66.32
2023-02-12T03:41:26.400Z,66.14
2023-02-12T03:43:56.677Z,66.03
2023-02-12T03:46:55.549Z,65.64
2023-02-12T03:50:02.890Z,64.98
2023-02-12T03:52:31.590Z,65.54
2023-02-12T03:55:00.033Z,65.34
2023-02-12T03:57:34.377Z,65.11
2023-02-12T04:00:06.658Z,64.98
2023-02-12T04:02:43.093Z,65.17
2023-02-12T04:05:22.961Z,64.82
2023-02-12T04:07:53.474Z,64.53
2023-02-12T04:10:32.960Z,64.59
2023-02-12T04:13:03.565Z,64.64
2023-02-12T04:15:40.255Z,65.03
2023-02-12T04:18:19.869Z,64.46
2023-02-12T04:21:08.985Z,64.60
2023-02-12T04:23:39.223Z,64.69
2023-02-12T04:26:36.179Z,64.28
2023-02-12T04:29:20.733Z,63.48
2023-02-12T04:31:51.141Z,63.92
2023-02-12T04:34:44.310Z,62.83
2023-02-12T04:37:11.698Z,63.17
2023-02-12T04:39:41.520Z,63.19
2023-02-12T04:42:09.304Z,63.06
2023-02-12T04:44:40.776Z,62.24
2023-02-12T04:47:10.445Z,62.74
2023-02-12T04:49:38.047Z,62.81
2023-02-12T04:52:05.602Z,62.62
2023-02-12T04:54:33.579Z,62.33
2023-02-12T04:57:01.636Z,62.00
2023-02-12T04:59:29.071Z,61.92
2023-02-12T05:01:57.241Z,61.82
2023-02-12T05:04:24.751Z,61.55
2023-02-12T05:06:52.287Z,61.34
2023-02-12T05:09:20.839Z,60.91
2023-02-12T05:11:48.689Z,61.24
2023-02-12T05:14:16.464Z,61.11
2023-02-12T05:16:43.991Z,60.86
2023-02-12T05:19:12.116Z,61.05
2023-02-12T05:21:39.613Z,61.14
2023-02-12T05:24:07.350Z,61.23
2023-02-12T05:26:36.070Z,61.52
2023-02-12T05:29:03.908Z,61.67
2023-02-12T05:31:31.551Z,61.42
2023-02-12T05:33:59.497Z,61.55
2023-02-12T05:36:27.234Z,61.77
2023-02-12T05:38:58.576Z,61.13
2023-02-12T05:41:27.243Z,61.72
2023-02-12T05:43:54.734Z,61.76
2023-02-12T05:46:22.621Z,61.50
2023-02-12T05:48:50.343Z,61.32
2023-02-12T05:51:21.935Z,61.28
2023-02-12T05:56:33.143Z,61.44
2023-02-12T05:59:04.536Z,61.63
2023-02-12T06:01:41.032Z,62.43
2023-02-12T06:04:14.072Z,62.08
2023-02-12T06:06:42.315Z,61.94
2023-02-12T06:09:11.808Z,61.77
2023-02-12T06:11:39.992Z,61.52
2023-02-12T06:14:09.713Z,61.37
2023-02-12T06:16:37.252Z,61.09
2023-02-12T06:19:05.983Z,61.18
2023-02-12T06:21:34.177Z,60.93
2023-02-12T06:24:01.946Z,60.79
2023-02-12T06:26:29.478Z,60.37
2023-02-12T06:28:57.111Z,60.23
2023-02-12T06:31:28.174Z,59.99
2023-02-12T06:33:59.532Z,59.78
2023-02-12T06:36:27.575Z,59.54
2023-02-12T06:38:55.288Z,59.66
2023-02-12T06:41:23.707Z,59.50
2023-02-12T06:43:51.428Z,59.43
2023-02-12T06:46:20.444Z,58.83
2023-02-12T06:48:48.147Z,59.32
2023-02-12T06:51:18.200Z,59.04
2023-02-12T06:53:45.836Z,58.93
2023-02-12T06:56:14.130Z,58.93
2023-02-12T06:58:45.996Z,58.34
2023-02-12T07:01:18.112Z,57.89
2023-02-12T07:03:52.543Z,57.68
2023-02-12T07:06:20.929Z,58.17
2023-02-12T07:08:49.053Z,58.00
2023-02-12T07:11:17.046Z,58.03
2023-02-12T07:13:45.654Z,57.74
2023-02-12T07:16:16.024Z,57.38
2023-02-12T07:18:44.664Z,57.23
2023-02-12T07:21:13.502Z,57.12
2023-02-12T07:23:41.701Z,57.26
2023-02-12T07:26:12.283Z,56.98
2023-02-12T07:28:40.010Z,57.00
2023-02-12T07:31:12.127Z,56.50
2023-02-12T07:33:40.690Z,56.22
2023-02-12T07:36:11.217Z,55.76
2023-02-12T07:38:41.841Z,56.21
2023-02-12T07:41:30.554Z,56.01
2023-02-12T07:44:06.832Z,56.18
2023-02-12T07:46:37.728Z,55.98
2023-02-12T07:49:07.580Z,56.02
2023-02-12T07:51:35.419Z,55.96
2023-02-12T07:54:04.033Z,55.53
2023-02-12T07:56:35.411Z,55.45
2023-02-12T07:59:08.147Z,55.11
2023-02-12T08:02:02.026Z,54.16
2023-02-12T08:04:29.779Z,54.82
2023-02-12T08:06:57.458Z,54.87
2023-02-12T08:09:28.650Z,54.96
2023-02-12T08:11:56.473Z,54.97
2023-02-12T08:14:24.050Z,54.79
2023-02-12T08:16:52.268Z,55.05
2023-02-12T08:19:23.973Z,54.67
2023-02-12T08:21:55.047Z,54.68
2023-02-12T08:24:23.754Z,54.70
2023-02-12T08:26:52.289Z,54.63
2023-02-12T08:29:24.250Z,54.14
2023-02-12T08:31:57.713Z,53.95
2023-02-12T08:34:28.349Z,54.02
2023-02-12T08:37:04.165Z,54.16
2023-02-12T08:39:31.788Z,53.95
2023-02-12T08:42:01.593Z,54.01
2023-02-12T08:44:29.766Z,53.73
2023-02-12T08:46:59.909Z,53.64
2023-02-12T08:49:29.976Z,53.66
2023-02-12T08:52:01.971Z,53.16
2023-02-12T08:54:32.454Z,53.28
2023-02-12T08:57:02.414Z,52.94
2023-02-12T08:59:29.930Z,53.15
2023-02-12T09:01:57.619Z,53.25
2023-02-12T09:04:27.404Z,52.64
2023-02-12T09:06:55.384Z,52.45
2023-02-12T09:09:22.982Z,52.54
2023-02-12T09:11:51.090Z,52.13
2023-02-12T09:14:24.675Z,51.78
2023-02-12T09:16:53.347Z,51.90
2023-02-12T09:19:21.481Z,51.64
2023-02-12T09:21:56.464Z,51.55
2023-02-12T09:24:25.841Z,51.79
2023-02-12T09:26:53.422Z,51.33
2023-02-12T09:29:20.972Z,50.75
2023-02-12T09:31:48.875Z,51.03
2023-02-12T09:34:16.645Z,50.74
2023-02-12T09:36:44.095Z,50.41
2023-02-12T09:39:11.572Z,50.53
2023-02-12T09:42:10.070Z,46.63
2023-02-12T09:44:43.515Z,45.60
2023-02-12T09:47:26.014Z,43.74
2023-02-12T09:50:20.545Z,41.79
2023-02-12T09:52:49.295Z,43.34
2023-02-12T09:55:18.384Z,43.12
2023-02-12T09:57:46.948Z,43.50
2023-02-12T10:00:31.961Z,41.65
2023-02-12T10:03:09.728Z,41.27
2023-02-12T10:05:53.801Z,39.94
2023-02-12T10:08:37.497Z,40.26
2023-02-12T10:11:20.294Z,38.76
2023-02-12T10:14:05.782Z,34.21
2023-02-12T10:16:56.932Z,31.26
2023-02-12T10:19:49.225Z,29.46
2023-02-12T10:22:28.756Z,30.52
2023-02-12T10:25:14.059Z,31.79
2023-02-12T10:27:49.255Z,30.82
2023-02-12T10:30:25.338Z,29.44
2023-02-12T10:33:03.259Z,30.63
2023-02-12T10:35:32.492Z,32.64
2023-02-12T10:38:17.788Z,33.43
2023-02-12T10:40:46.253Z,34.53
2023-02-12T10:43:16.710Z,33.40
2023-02-12T10:45:44.922Z,31.20
2023-02-12T10:48:36.592Z,27.37
2023-02-12T10:51:10.108Z,25.22
2023-02-12T10:53:40.589Z,24.93
2023-02-12T10:56:14.037Z,22.68
2023-02-12T10:58:52.659Z,24.17
2023-02-12T11:01:27.716Z,24.80
2023-02-12T11:03:57.297Z,25.25
2023-02-12T11:06:29.414Z,24.88
2023-02-12T11:08:58.233Z,25.15
2023-02-12T11:11:38.948Z,25.39
2023-02-12T11:14:16.512Z,24.62
2023-02-12T11:16:57.367Z,22.92
2023-02-12T11:19:29.332Z,21.61
2023-02-12T11:22:19.062Z,21.29
2023-02-12T11:24:47.187Z,20.62
2023-02-12T11:27:30.565Z,18.25
2023-02-12T11:30:10.425Z,19.13
2023-02-12T11:32:38.373Z,20.83
2023-02-12T11:35:18.847Z,20.48
2023-02-12T11:37:47.746Z,20.17
2023-02-12T11:40:45.981Z,20.59
2023-02-12T11:43:18.610Z,20.52
2023-02-12T11:45:50.661Z,20.73
2023-02-12T11:48:29.645Z,20.58
2023-02-12T11:51:00.704Z,21.89
2023-02-12T11:53:40.292Z,22.87
2023-02-12T11:56:11.110Z,22.38
2023-02-12T11:58:39.529Z,21.72
2023-02-12T12:01:24.985Z,21.57
2023-02-12T12:04:20.758Z,24.02
2023-02-12T12:07:08.802Z,26.63
2023-02-12T12:10:00.850Z,28.67
2023-02-12T12:12:55.505Z,30.90
2023-02-12T12:15:47.522Z,32.33
2023-02-12T12:18:44.159Z,33.46
2023-02-12T12:21:44.700Z,34.67
2023-02-12T12:24:26.960Z,36.37
2023-02-12T12:27:03.439Z,36.52
2023-02-12T12:29:49.144Z,37.64
2023-02-12T12:32:19.828Z,37.45
2023-02-12T12:34:47.956Z,37.54
2023-02-12T12:37:58.417Z,39.35
2023-02-12T12:41:02.797Z,39.66
2023-02-12T12:43:51.635Z,40.35
2023-02-12T12:46:43.852Z,40.56
2023-02-12T12:49:59.344Z,42.26
2023-02-12T12:52:46.309Z,42.64
2023-02-12T12:56:17.806Z,43.24
2023-02-12T12:59:13.170Z,43.99
2023-02-12T13:01:43.499Z,43.44
2023-02-12T13:04:55.858Z,44.77
2023-02-12T13:07:38.662Z,43.86
2023-02-12T13:10:33.995Z,44.31
2023-02-12T13:13:19.961Z,44.36
2023-02-12T13:16:17.964Z,44.34
2023-02-12T13:18:48.493Z,43.12
2023-02-12T13:21:19.445Z,44.12
2023-02-12T13:23:58.625Z,44.27
2023-02-12T13:26:49.239Z,45.17
2023-02-12T13:29:28.938Z,44.25
2023-02-12T13:32:06.159Z,45.03
2023-02-12T13:34:37.254Z,45.09
2023-02-12T13:37:06.779Z,45.50
2023-02-12T13:39:45.493Z,46.47
2023-02-12T13:42:40.154Z,47.49
2023-02-12T13:45:29.425Z,47.42
2023-02-12T13:48:09.965Z,47.12
2023-02-12T13:50:46.764Z,47.88
2023-02-12T13:53:26.978Z,47.13
2023-02-12T13:56:02.139Z,47.36
2023-02-12T13:58:32.777Z,48.08
2023-02-12T14:01:07.805Z,48.57
2023-02-12T14:03:37.302Z,48.09
2023-02-12T14:06:15.973Z,49.35
2023-02-12T14:08:47.632Z,48.63
2023-02-12T14:11:19.363Z,48.84
2023-02-12T14:14:00.561Z,49.77
2023-02-12T14:16:31.176Z,49.33
2023-02-12T14:19:35.796Z,50.44
2023-02-12T14:22:11.466Z,50.19
2023-02-12T14:24:39.019Z,49.50
2023-02-12T14:27:20.915Z,50.92
2023-02-12T14:30:07.082Z,51.55
2023-02-12T14:32:55.983Z,51.36
2023-02-12T14:35:26.606Z,51.08
2023-02-12T14:37:56.415Z,51.01
2023-02-12T14:40:33.147Z,52.52
2023-02-12T14:43:04.166Z,51.34
2023-02-12T14:45:37.084Z,51.90
2023-02-12T14:48:05.695Z,51.96
2023-02-12T14:50:52.180Z,52.84
2023-02-12T14:53:30.333Z,52.63
2023-02-12T14:56:00.168Z,51.95
2023-02-12T14:58:31.929Z,52.45
2023-02-12T15:01:03.628Z,52.58
2023-02-12T15:03:54.787Z,53.82
2023-02-12T15:06:31.818Z,52.91
2023-02-12T15:09:08.889Z,53.21
2023-02-12T15:12:03.885Z,52.84
2023-02-12T15:14:35.118Z,53.18
2023-02-12T15:17:26.577Z,54.62
2023-02-12T15:20:16.285Z,54.19
2023-02-12T15:22:46.066Z,53.64
2023-02-12T15:25:31.247Z,54.01
2023-02-12T15:28:04.703Z,54.40
2023-02-12T15:30:35.876Z,53.97
2023-02-12T15:33:08.946Z,54.39
2023-02-12T15:35:39.871Z,54.49
2023-02-12T15:38:09.641Z,54.12
2023-02-12T15:40:37.188Z,54.23
2023-02-12T15:43:18.163Z,55.22
2023-02-12T15:45:53.115Z,55.21
2023-02-12T15:48:30.522Z,55.26
2023-02-12T15:51:30.526Z,55.61
2023-02-12T15:54:05.907Z,55.28
2023-02-12T15:56:40.801Z,54.82
2023-02-12T15:59:20.238Z,55.77
2023-02-12T16:02:02.784Z,55.83
2023-02-12T16:04:43.310Z,55.41
2023-02-12T16:07:15.412Z,55.18
2023-02-12T16:09:44.976Z,54.86
2023-02-12T16:12:14.900Z,55.27
2023-02-12T16:14:54.856Z,55.82
2023-02-12T16:17:25.942Z,55.57
2023-02-12T16:19:55.848Z,55.22
2023-02-12T16:22:30.983Z,55.64
2023-02-12T16:24:59.231Z,55.32
2023-02-12T16:27:34.325Z,55.76
2023-02-12T16:30:22.449Z,55.87
2023-02-12T16:32:52.751Z,55.45
2023-02-12T16:35:30.181Z,55.99
2023-02-12T16:38:03.746Z,55.44
2023-02-12T16:40:34.858Z,55.39
2023-02-12T16:43:24.370Z,56.49
2023-02-12T16:46:04.779Z,56.02
2023-02-12T16:48:40.468Z,55.75
2023-02-12T16:51:26.390Z,56.02
2023-02-12T16:53:57.775Z,55.49
2023-02-12T16:56:34.359Z,55.71
2023-02-12T16:59:04.828Z,55.36
2023-02-12T17:01:38.460Z,55.84
2023-02-12T17:04:09.278Z,55.57
2023-02-12T17:06:41.280Z,56.11
2023-02-12T17:09:10.324Z,55.65
2023-02-12T17:11:38.893Z,55.83
2023-02-12T17:14:06.587Z,55.73
2023-02-12T17:16:34.439Z,56.15
2023-02-12T17:19:05.894Z,56.20
2023-02-12T17:21:47.930Z,56.19
2023-02-12T17:24:23.513Z,56.08
2023-02-12T17:27:01.077Z,56.33
2023-02-12T17:29:32.745Z,55.63
2023-02-12T17:32:00.617Z,55.88
2023-02-12T17:34:32.090Z,55.87
2023-02-12T17:37:07.492Z,55.88
2023-02-12T17:39:35.206Z,56.16
2023-02-12T17:42:03.859Z,56.24
2023-02-12T17:44:31.437Z,56.44
2023-02-12T17:46:59.152Z,56.17
2023-02-12T17:49:26.850Z,56.40
2023-02-12T17:51:55.868Z,56.45
2023-02-12T17:54:23.528Z,56.60
2023-02-12T17:56:51.027Z,56.54
2023-02-12T17:59:19.304Z,56.81
2023-02-12T18:01:46.928Z,56.57
2023-02-12T18:04:14.763Z,56.50
2023-02-12T18:06:42.522Z,56.63
2023-02-12T18:09:11.351Z,56.72
2023-02-12T18:11:40.483Z,56.94
2023-02-12T18:14:09.217Z,56.97
2023-02-12T18:16:37.271Z,57.53
2023-02-12T18:19:05.975Z,57.70
2023-02-12T18:21:35.511Z,57.40
2023-02-12T18:24:03.521Z,57.66
2023-02-12T18:26:31.507Z,57.92
2023-02-12T18:29:00.173Z,57.85
2023-02-12T18:31:29.364Z,57.52
2023-02-12T18:33:57.127Z,57.81
2023-02-12T18:36:25.138Z,57.66
2023-02-12T18:38:53.368Z,57.53
2023-02-12T18:41:26.846Z,58.17
2023-02-12T18:43:54.998Z,58.21
2023-02-12T18:46:26.343Z,58.55
2023-02-12T18:48:54.766Z,57.92
2023-02-12T18:51:28.132Z,58.37
2023-02-12T18:54:01.450Z,57.95
2023-02-12T18:56:39.410Z,58.73
2023-02-12T18:59:07.790Z,58.56
2023-02-12T19:01:36.887Z,58.58
2023-02-12T19:04:09.759Z,58.66
2023-02-12T19:06:44.435Z,59.80
2023-02-12T19:09:13.583Z,58.82
2023-02-12T19:11:46.871Z,58.91
2023-02-12T19:14:17.871Z,58.78
2023-02-12T19:16:47.165Z,58.88
2023-02-12T19:19:16.318Z,59.32
2023-02-12T19:21:44.203Z,59.28
2023-02-12T19:24:18.502Z,59.72
2023-02-12T19:26:46.149Z,59.04
2023-02-12T19:29:14.058Z,59.03
2023-02-12T19:31:45.112Z,59.88
2023-02-12T19:34:17.234Z,59.54
2023-02-12T19:36:48.868Z,59.83
2023-02-12T19:39:19.449Z,59.82
2023-02-12T19:41:48.127Z,59.38
2023-02-12T19:44:19.069Z,59.96
2023-02-12T19:46:48.684Z,59.77
2023-02-12T19:49:23.493Z,60.00
2023-02-12T19:51:51.821Z,59.78
2023-02-12T19:54:21.547Z,60.48
2023-02-12T19:56:49.607Z,59.96
2023-02-12T19:59:19.702Z,59.76
2023-02-12T20:01:48.638Z,59.77
2023-02-12T20:04:20.066Z,60.18
2023-02-12T20:06:51.064Z,60.20
2023-02-12T20:09:20.552Z,59.97
2023-02-12T20:11:48.321Z,59.99
2023-02-12T20:14:16.217Z,59.92
2023-02-12T20:16:46.891Z,60.12
2023-02-12T20:19:24.007Z,60.01
2023-02-12T20:21:56.102Z,60.01
2023-02-12T20:24:28.777Z,60.19
2023-02-12T20:26:57.825Z,60.21
2023-02-12T20:29:26.017Z,60.30
2023-02-12T20:31:53.774Z,60.03
2023-02-12T20:34:22.245Z,60.19
2023-02-12T20:36:50.013Z,60.46
2023-02-12T20:39:20.899Z,60.56
2023-02-12T20:41:49.483Z,60.31
2023-02-12T20:44:20.392Z,60.81
2023-02-12T20:46:52.481Z,60.68
2023-02-12T20:49:25.072Z,60.81
2023-02-12T20:51:53.096Z,60.82
2023-02-12T20:54:20.736Z,61.40
2023-02-12T20:56:49.890Z,61.04
2023-02-12T20:59:18.683Z,61.33
2023-02-12T21:01:47.156Z,61.19
2023-02-12T21:04:16.963Z,61.28
2023-02-12T21:06:45.881Z,60.92
2023-02-12T21:09:15.473Z,61.23
2023-02-12T21:11:45.753Z,61.16
2023-02-12T21:14:23.450Z,61.63
2023-02-12T21:16:56.029Z,62.05
2023-02-12T21:19:24.528Z,61.19
2023-02-12T21:21:53.002Z,61.51
2023-02-12T21:24:26.561Z,62.10
2023-02-12T21:26:55.513Z,61.83
2023-02-12T21:29:23.659Z,62.21
2023-02-12T21:31:54.448Z,62.29
2023-02-12T21:34:23.763Z,62.49
2023-02-12T21:36:54.803Z,62.38
2023-02-12T21:39:27.896Z,62.13
2023-02-12T21:42:04.107Z,62.38
2023-02-12T21:44:35.526Z,62.46
2023-02-12T21:47:04.668Z,62.58
2023-02-12T21:49:32.263Z,62.30
2023-02-12T21:52:02.579Z,62.24
2023-02-12T21:54:30.905Z,62.86
2023-02-12T21:56:59.537Z,62.42
2023-02-12T21:59:30.149Z,62.72
2023-02-12T22:01:59.262Z,63.05
2023-02-12T22:04:27.121Z,62.65
2023-02-12T22:06:56.602Z,62.73
2023-02-12T22:09:24.262Z,62.98
2023-02-12T22:11:52.604Z,62.48
2023-02-12T22:14:21.532Z,62.75
2023-02-12T22:16:49.959Z,62.60
2023-02-12T22:19:17.871Z,62.74
2023-02-12T22:21:45.574Z,62.83
2023-02-12T22:24:15.731Z,62.76
2023-02-12T22:26:44.180Z,62.57
2023-02-12T22:29:14.144Z,63.20
2023-02-12T22:31:44.098Z,63.09
2023-02-12T22:34:14.979Z,63.00
2023-02-12T22:36:43.872Z,62.85
2023-02-12T22:39:13.265Z,62.93
2023-02-12T22:41:42.559Z,63.82
2023-02-12T22:44:12.691Z,62.96
2023-02-12T22:46:41.969Z,63.00
2023-02-12T22:49:09.778Z,63.55
2023-02-12T22:51:39.597Z,63.66
2023-02-12T22:54:08.385Z,63.36
2023-02-12T22:56:57.653Z,63.87
2023-02-12T23:00:38.026Z,63.51
2023-02-12T23:07:20.681Z,63.52
2023-02-12T23:10:25.765Z,63.97
2023-02-12T23:13:29.615Z,63.88
2023-02-12T23:16:01.439Z,63.11
2023-02-12T23:19:03.156Z,62.80
2023-02-12T23:21:32.180Z,63.14
2023-02-12T23:23:59.712Z,63.38
2023-02-12T23:26:29.259Z,63.76
2023-02-12T23:28:57.370Z,63.51
2023-02-12T23:31:25.561Z,63.83
2023-02-12T23:33:53.313Z,63.67
2023-02-12T23:36:21.075Z,63.21
2023-02-12T23:38:48.560Z,63.52
2023-02-12T23:41:16.093Z,63.28
2023-02-12T23:43:43.643Z,63.59
2023-02-12T23:46:11.291Z,63.91
2023-02-12T23:48:38.886Z,63.67
2023-02-12T23:51:06.468Z,63.89
2023-02-12T23:53:34.097Z,64.05
2023-02-12T23:56:01.677Z,63.91
2023-02-12T23:58:29.191Z,64.30
